Time;durP1;ratioP1;P1;durP2;ratioP2;P2;SDS_P1;SDS_P2;PMS_P1;PMS_P2;Temp;Humidity;BMP_temperature;BMP_pressure;BME280_temperature;BME280_humidity;BME280_pressure;Samples;Min_cycle;Max_cycle;Signal;HPM_P1;HPM_P2
2022/01/23 00:00:55;;;;;;;1.55;0.90;;;0.10;99.90;;;;;;5073197;28;20028;-66
2022/01/23 00:03:21;;;;;;;1.60;1.10;;;0.10;99.90;;;;;;5072770;28;20031;-66
2022/01/23 00:05:49;;;;;;;2.60;1.00;;;0.10;99.90;;;;;;5072831;28;20024;-66
2022/01/23 00:08:19;;;;;;;1.55;1.02;;;0.10;99.90;;;;;;5072663;28;20556;-66
2022/01/23 00:10:45;;;;;;;;;;;0.10;99.90;;;;;;5073333;28;20491;-67
2022/01/23 00:13:25;;;;;;;1.70;0.75;;;0.10;99.90;;;;;;5072555;28;19905;-66
2022/01/23 00:18:35;;;;;;;1.15;1.05;;;0.10;99.90;;;;;;5072703;28;20031;-66
2022/01/23 00:21:01;;;;;;;1.92;0.80;;;0.00;99.90;;;;;;5072458;28;20021;-66
2022/01/23 00:31:41;;;;;;;1.13;0.90;;;0.00;99.90;;;;;;5072398;28;20027;-66
2022/01/23 00:34:07;;;;;;;1.73;0.90;;;0.00;99.90;;;;;;5072155;28;20024;-66
2022/01/23 00:36:35;;;;;;;2.05;0.90;;;0.00;99.90;;;;;;5072176;28;20479;-66
2022/01/23 00:39:00;;;;;;;1.30;1.15;;;0.00;99.90;;;;;;5072094;28;20536;-66
2022/01/23 00:41:26;;;;;;;1.88;0.93;;;-0.10;99.90;;;;;;5072367;28;20032;-66
2022/01/23 00:43:54;;;;;;;1.05;0.73;;;0.00;99.90;;;;;;5072174;28;20089;-66
2022/01/23 00:49:23;;;;;;;1.95;1.10;;;-0.10;99.90;;;;;;5072225;28;20067;-66
2022/01/23 00:51:37;;;;;;;;;;;-0.10;99.90;;;;;;5072370;28;20490;-66
2022/01/23 00:54:10;;;;;;;1.40;1.00;;;-0.10;99.90;;;;;;5072104;28;20279;-66
2022/01/23 00:56:36;;;;;;;1.42;0.90;;;-0.10;99.90;;;;;;5072254;28;20029;-66
2022/01/23 00:59:03;;;;;;;0.77;0.65;;;-0.10;99.90;;;;;;5072229;28;20031;-66
2022/01/23 01:01:29;;;;;;;1.10;1.00;;;-0.10;99.90;;;;;;5072025;28;20058;-66
2022/01/23 01:03:55;;;;;;;0.90;0.90;;;-0.20;99.90;;;;;;5071959;28;20020;-66
2022/01/23 01:06:21;;;;;;;1.60;0.80;;;-0.20;99.90;;;;;;5072036;28;20108;-66
2022/01/23 01:08:49;;;;;;;1.15;0.90;;;-0.20;99.90;;;;;;5072040;28;20073;-66
2022/01/23 01:35:26;;;;;;;0.50;0.50;;;0.80;99.90;;;;;;5071501;28;20040;-66
2022/01/23 01:37:52;;;;;;;0.50;0.50;;;0.90;99.90;;;;;;5071288;28;20041;-68
2022/01/23 01:40:20;;;;;;;0.60;0.60;;;1.00;99.90;;;;;;5071471;28;20032;-65
2022/01/23 01:42:46;;;;;;;0.50;0.50;;;1.00;99.90;;;;;;5070277;28;20021;-65
2022/01/23 01:45:12;;;;;;;0.85;0.70;;;1.10;99.90;;;;;;5072971;28;20074;-65
2022/01/23 01:47:46;;;;;;;0.70;0.70;;;1.30;99.90;;;;;;5075576;28;20070;-66
2022/01/23 01:50:11;;;;;;;0.93;0.65;;;1.40;99.90;;;;;;5075339;28;20360;-66
2022/01/23 01:52:37;;;;;;;0.65;0.65;;;1.50;99.90;;;;;;5075685;28;20035;-66
2022/01/23 01:55:06;;;;;;;0.65;0.65;;;1.60;99.90;;;;;;5075422;28;20441;-66
2022/01/23 01:57:39;;;;;;;1.55;0.50;;;1.60;99.90;;;;;;5075204;28;20455;-66
2022/01/23 02:00:35;;;;;;;0.70;0.70;;;1.70;99.90;;;;;;5075536;28;20089;-66
2022/01/23 02:08:30;;;;;;;2.05;0.70;;;2.00;99.90;;;;;;5075043;28;20454;-66
2022/01/23 02:11:10;;;;;;;0.60;0.60;;;2.10;99.90;;;;;;5075167;28;20025;-66
2022/01/23 02:13:46;;;;;;;0.55;0.55;;;2.20;99.90;;;;;;5075116;28;20376;-66
2022/01/23 02:56:06;;;;;;;0.50;0.50;;;3.00;99.90;;;;;;5073701;28;20119;-67
2022/01/23 02:58:54;;;;;;;0.45;0.45;;;3.00;99.90;;;;;;5073755;28;20471;-66
2022/01/23 03:01:20;;;;;;;0.77;0.70;;;3.10;99.90;;;;;;5074413;28;20040;-65
2022/01/23 03:37:26;;;;;;;0.40;0.40;;;3.40;99.90;;;;;;5752304;22;20084;-70
2022/01/23 03:39:52;;;;;;;0.70;0.70;;;3.40;99.90;;;;;;5053336;28;20467;-68
2022/01/23 03:42:17;;;;;;;0.70;0.70;;;3.40;99.90;;;;;;5053689;28;20025;-68
2022/01/23 03:44:59;;;;;;;0.50;0.50;;;3.40;99.90;;;;;;5053636;28;20025;-68
2022/01/23 03:49:59;;;;;;;0.40;0.40;;;3.40;99.90;;;;;;5056853;28;20017;-68
2022/01/23 03:52:26;;;;;;;0.50;0.50;;;3.40;99.90;;;;;;5053346;28;20020;-68
2022/01/23 03:54:52;;;;;;;0.50;0.50;;;3.40;99.90;;;;;;5053193;28;20082;-70
2022/01/23 03:57:18;;;;;;;0.43;0.43;;;3.50;99.90;;;;;;5052932;28;20553;-68
2022/01/23 03:59:44;;;;;;;0.50;0.50;;;3.50;99.90;;;;;;5053469;28;20115;-68
2022/01/23 04:02:10;;;;;;;0.50;0.50;;;3.50;99.90;;;;;;5052998;28;20040;-68
2022/01/23 04:04:42;;;;;;;0.60;0.60;;;3.60;99.90;;;;;;5052994;28;20033;-68
2022/01/23 04:07:19;;;;;;;0.68;0.63;;;3.60;99.90;;;;;;5052751;28;20103;-68
2022/01/23 04:09:47;;;;;;;1.95;0.60;;;3.60;99.90;;;;;;5052930;28;20383;-68
2022/01/23 04:12:41;;;;;;;0.47;0.47;;;3.60;99.90;;;;;;5053053;28;20460;-68
2022/01/23 04:15:20;;;;;;;0.60;0.60;;;3.60;99.90;;;;;;5052749;28;20086;-68
2022/01/23 04:34:11;;;;;;;0.50;0.50;;;3.70;99.90;;;;;;5052585;28;20071;-68
2022/01/23 05:04:17;;;;;;;0.60;0.60;;;3.70;99.90;;;;;;5051877;28;20024;-68
2022/01/23 05:07:04;;;;;;;0.55;0.55;;;3.70;99.90;;;;;;5050939;28;20014;-68
2022/01/23 05:09:30;;;;;;;0.40;0.40;;;3.60;99.90;;;;;;5052088;28;20033;-67
2022/01/23 05:12:01;;;;;;;0.57;0.57;;;3.60;99.90;;;;;;5052042;28;20044;-68
2022/01/23 05:17:02;;;;;;;1.27;0.50;;;3.60;99.90;;;;;;5051996;28;20044;-67
2022/01/23 05:19:28;;;;;;;0.50;0.50;;;3.70;99.90;;;;;;5051263;28;20498;-68
2022/01/23 05:24:34;;;;;;;0.50;0.50;;;3.60;99.90;;;;;;5051794;28;20357;-68
2022/01/23 05:27:03;;;;;;;0.60;0.60;;;3.60;99.90;;;;;;5051903;28;20032;-69
2022/01/23 05:29:29;;;;;;;0.68;0.57;;;3.60;99.90;;;;;;5064658;28;20020;-70
2022/01/23 05:31:55;;;;;;;0.40;0.40;;;3.60;99.90;;;;;;5071942;28;20540;-68
2022/01/23 05:34:22;;;;;;;0.55;0.55;;;3.60;99.90;;;;;;5071831;28;20040;-70
2022/01/23 05:36:48;;;;;;;0.50;0.50;;;3.90;99.90;;;;;;5071769;28;20111;-69
2022/01/23 05:39:16;;;;;;;1.85;0.60;;;5.20;99.90;;;;;;5071322;28;20040;-69
2022/01/23 05:41:42;;;;;;;339.13;48.35;;;5.10;99.90;;;;;;5070749;28;20471;-65
2022/01/23 05:44:08;;;;;;;1.55;1.20;;;5.10;99.90;;;;;;5071247;28;20029;-66
2022/01/23 05:46:34;;;;;;;82.22;14.82;;;5.50;99.90;;;;;;5071132;28;20020;-65
2022/01/23 05:48:59;;;;;;;1.55;1.08;;;5.90;99.90;;;;;;5071086;28;20020;-64
2022/01/23 05:51:25;;;;;;;1.00;0.60;;;6.10;99.90;;;;;;5067219;28;20141;-66
2022/01/23 05:53:51;;;;;;;3.47;0.57;;;6.30;99.90;;;;;;5070835;28;20124;-65
2022/01/23 05:56:17;;;;;;;1.65;0.70;;;6.20;99.90;;;;;;5070389;28;20475;-65
2022/01/23 05:58:43;;;;;;;0.55;0.55;;;6.00;99.90;;;;;;5065498;28;20429;-65
2022/01/23 06:01:09;;;;;;;0.40;0.40;;;5.50;99.90;;;;;;5066772;28;20025;-66
2022/01/23 06:03:35;;;;;;;0.50;0.50;;;5.20;99.90;;;;;;5069142;28;20094;-66
2022/01/23 06:06:00;;;;;;;0.68;0.50;;;5.10;99.90;;;;;;5070593;28;20024;-66
2022/01/23 06:08:26;;;;;;;0.43;0.40;;;5.00;99.90;;;;;;5050655;28;20025;-64
2022/01/23 06:10:58;;;;;;;0.82;0.50;;;5.00;99.90;;;;;;5063594;28;20024;-65
2022/01/23 06:13:26;;;;;;;0.50;0.50;;;4.90;99.90;;;;;;5070258;28;20113;-65
2022/01/23 06:15:53;;;;;;;0.50;0.50;;;4.80;99.90;;;;;;5070540;28;20029;-66
2022/01/23 06:18:19;;;;;;;0.55;0.50;;;4.60;99.90;;;;;;5057106;28;20021;-66
2022/01/23 06:20:45;;;;;;;0.77;0.50;;;4.60;99.90;;;;;;5050365;28;20021;-64
2022/01/23 06:23:12;;;;;;;0.57;0.50;;;4.60;99.90;;;;;;5051008;28;20460;-65
2022/01/23 06:25:45;;;;;;;0.55;0.55;;;4.60;99.90;;;;;;5051450;28;20394;-66
2022/01/23 06:28:18;;;;;;;0.43;0.43;;;4.60;99.90;;;;;;5050961;28;20029;-66
2022/01/23 06:30:44;;;;;;;0.50;0.50;;;4.80;99.90;;;;;;5052282;28;20017;-66
2022/01/23 06:33:09;;;;;;;0.40;0.40;;;4.70;99.90;;;;;;5054790;28;20387;-65
2022/01/23 06:35:37;;;;;;;0.50;0.50;;;4.70;99.90;;;;;;5054584;28;20033;-65
2022/01/23 06:38:03;;;;;;;0.82;0.60;;;4.60;99.90;;;;;;5054565;28;20063;-66
2022/01/23 06:40:29;;;;;;;0.55;0.50;;;4.60;99.90;;;;;;5054645;28;20414;-65
2022/01/23 06:42:54;;;;;;;1.42;0.50;;;4.50;99.90;;;;;;5054501;28;20028;-65
2022/01/23 06:45:20;;;;;;;1.88;0.50;;;4.50;99.90;;;;;;5054818;28;20034;-65
2022/01/23 06:47:46;;;;;;;0.50;0.50;;;4.50;99.90;;;;;;5054731;28;20029;-65
2022/01/23 06:50:12;;;;;;;0.77;0.50;;;4.50;99.90;;;;;;5054591;28;20021;-65
2022/01/23 06:52:37;;;;;;;2.00;0.50;;;4.40;99.90;;;;;;5054568;28;20028;-65
2022/01/23 06:55:03;;;;;;;0.70;0.57;;;4.30;99.90;;;;;;5054450;28;20036;-68
2022/01/23 06:57:29;;;;;;;0.68;0.65;;;4.30;99.90;;;;;;5068516;28;20031;-65
2022/01/23 06:59:55;;;;;;;0.50;0.50;;;4.20;99.90;;;;;;5074162;28;20074;-67
2022/01/23 07:02:20;;;;;;;0.60;0.60;;;4.20;99.90;;;;;;5074042;28;20031;-66
2022/01/23 07:04:46;;;;;;;0.50;0.50;;;4.20;99.90;;;;;;5074145;28;20024;-66
2022/01/23 07:07:12;;;;;;;0.50;0.50;;;4.50;99.90;;;;;;5073983;28;20487;-69
2022/01/23 07:09:37;;;;;;;0.50;0.50;;;4.40;99.90;;;;;;5074162;28;20027;-67
2022/01/23 07:12:03;;;;;;;0.50;0.50;;;4.30;99.90;;;;;;5074133;28;20357;-67
2022/01/23 07:14:29;;;;;;;0.50;0.50;;;4.20;99.90;;;;;;5072568;28;20483;-71
2022/01/23 07:16:55;;;;;;;0.95;0.60;;;4.20;99.90;;;;;;5074230;28;20103;-66
2022/01/23 07:19:20;;;;;;;0.50;0.50;;;4.20;99.90;;;;;;5073566;28;20109;-66
2022/01/23 07:21:46;;;;;;;0.65;0.50;;;4.60;99.90;;;;;;5071699;28;20108;-63
2022/01/23 07:24:12;;;;;;;1.90;0.60;;;5.00;99.90;;;;;;5073766;28;20078;-65
2022/01/23 07:26:38;;;;;;;0.57;0.57;;;5.20;99.90;;;;;;5073652;28;20029;-68
2022/01/23 07:29:05;;;;;;;0.50;0.50;;;5.40;99.90;;;;;;5073557;28;20029;-69
2022/01/23 07:34:02;;;;;;;0.50;0.50;;;5.00;99.90;;;;;;5073777;28;20045;-69
2022/01/23 07:36:28;;;;;;;0.65;0.50;;;4.90;99.90;;;;;;5070460;28;20060;-70
2022/01/23 07:38:54;;;;;;;0.50;0.50;;;4.70;99.90;;;;;;5070481;28;20132;-70
2022/01/23 07:41:20;;;;;;;0.50;0.50;;;4.60;99.90;;;;;;5073572;28;20040;-70
2022/01/23 07:43:46;;;;;;;0.73;0.50;;;4.50;99.90;;;;;;5072592;28;20463;-70
2022/01/23 07:46:12;;;;;;;0.50;0.50;;;4.40;99.90;;;;;;5072932;28;20082;-68
2022/01/23 07:48:38;;;;;;;0.88;0.52;;;4.40;99.90;;;;;;5073021;28;20024;-68
2022/01/23 07:51:04;;;;;;;0.55;0.55;;;4.70;99.90;;;;;;5073178;28;20025;-67
2022/01/23 07:53:29;;;;;;;1.85;0.60;;;4.90;99.90;;;;;;5072963;28;20032;-67
2022/01/23 07:55:55;;;;;;;0.60;0.60;;;5.00;99.90;;;;;;5070815;28;20028;-66
2022/01/23 07:58:22;;;;;;;4.18;0.60;;;5.00;99.90;;;;;;5071267;28;20517;-66
2022/01/23 08:00:48;;;;;;;0.50;0.50;;;4.90;99.90;;;;;;5071906;28;20035;-66
2022/01/23 08:03:14;;;;;;;0.50;0.50;;;4.70;99.90;;;;;;5071410;28;20100;-64
2022/01/23 08:05:43;;;;;;;0.50;0.50;;;4.60;99.90;;;;;;5071315;28;20111;-66
2022/01/23 08:08:09;;;;;;;1.00;0.65;;;4.50;99.90;;;;;;5071406;28;20021;-66
2022/01/23 08:10:35;;;;;;;1.30;0.60;;;4.50;99.90;;;;;;5072830;28;20025;-66
2022/01/23 08:13:03;;;;;;;1.52;0.70;;;4.50;99.90;;;;;;5073192;28;20056;-68
2022/01/23 08:15:29;;;;;;;0.82;0.70;;;4.50;99.90;;;;;;5072209;28;20076;-67
2022/01/23 08:18:03;;;;;;;2.10;0.70;;;4.60;99.90;;;;;;5071197;28;20123;-67
2022/01/23 08:20:29;;;;;;;1.13;0.70;;;4.60;99.90;;;;;;5052551;28;20033;-68
2022/01/23 08:22:55;;;;;;;0.70;0.70;;;4.60;99.90;;;;;;5071774;28;20490;-67
2022/01/23 08:25:20;;;;;;;1.08;0.70;;;4.60;99.90;;;;;;5072646;28;20060;-68
2022/01/23 08:27:46;;;;;;;4.00;0.70;;;4.90;99.90;;;;;;5072622;28;20075;-68
2022/01/23 08:30:13;;;;;;;1.20;0.70;;;5.00;99.90;;;;;;5072610;28;20035;-68
2022/01/23 08:32:39;;;;;;;0.95;0.55;;;4.90;99.90;;;;;;5072055;28;20467;-67
2022/01/23 08:35:05;;;;;;;0.60;0.60;;;4.80;99.90;;;;;;5071721;28;20495;-67
2022/01/23 08:37:31;;;;;;;2.03;0.80;;;4.90;99.90;;;;;;5071180;28;20046;-67
2022/01/23 08:39:57;;;;;;;11.65;6.18;;;5.20;99.90;;;;;;5072122;28;20039;-66
2022/01/23 08:42:23;;;;;;;3.42;1.55;;;6.40;99.90;;;;;;5071996;28;20546;-68
2022/01/23 08:44:50;;;;;;;1.85;0.80;;;7.60;99.90;;;;;;5072083;28;20116;-68
2022/01/23 08:47:17;;;;;;;1.40;1.23;;;7.20;99.90;;;;;;5072180;28;20063;-68
2022/01/23 08:49:46;;;;;;;0.60;0.60;;;6.90;99.90;;;;;;5068956;28;20040;-71
2022/01/23 08:52:15;;;;;;;0.60;0.60;;;6.50;99.90;;;;;;5072325;28;20025;-66
2022/01/23 08:54:41;;;;;;;0.80;0.80;;;6.10;99.90;;;;;;5069944;28;20641;-67
2022/01/23 08:57:06;;;;;;;0.65;0.60;;;5.90;99.90;;;;;;5072112;28;20115;-67
2022/01/23 08:59:32;;;;;;;2.40;0.73;;;5.70;99.90;;;;;;5070949;28;20135;-68
2022/01/23 09:01:58;;;;;;;8.38;1.30;;;6.20;99.90;;;;;;5071901;28;20506;-65
2022/01/23 09:04:23;;;;;;;0.88;0.60;;;6.70;99.90;;;;;;5072066;28;20031;-69
2022/01/23 09:06:49;;;;;;;0.55;0.55;;;7.90;99.90;;;;;;5071824;28;20113;-68
2022/01/23 09:09:18;;;;;;;0.47;0.47;;;7.50;99.90;;;;;;5071779;28;20031;-68
2022/01/23 09:12:06;;;;;;;1.17;0.50;;;6.90;99.90;;;;;;5071791;28;20548;-68
2022/01/23 09:14:31;;;;;;;0.80;0.50;;;6.40;99.90;;;;;;5071703;28;20043;-68
2022/01/23 09:16:59;;;;;;;0.52;0.35;;;6.10;99.90;;;;;;5071830;28;20016;-68
2022/01/23 09:19:25;;;;;;;0.50;0.50;;;5.80;99.90;;;;;;5071626;28;20032;-68
2022/01/23 09:21:53;;;;;;;2.17;0.40;;;5.70;99.90;;;;;;5071824;28;20379;-68
2022/01/23 09:24:22;;;;;;;0.35;0.35;;;5.50;99.90;;;;;;5071543;28;20017;-68
2022/01/23 09:26:53;;;;;;;0.55;0.55;;;5.40;99.90;;;;;;5072114;28;20032;-68
2022/01/23 09:29:38;;;;;;;0.50;0.50;;;5.40;99.90;;;;;;5071338;28;20483;-69
2022/01/23 09:32:12;;;;;;;0.60;0.50;;;5.30;99.90;;;;;;5071811;28;20470;-69
2022/01/23 09:34:41;;;;;;;0.40;0.40;;;5.30;99.90;;;;;;5071570;28;20027;-69
2022/01/23 09:37:10;;;;;;;0.50;0.50;;;5.30;99.90;;;;;;5070513;28;20025;-69
2022/01/23 09:39:37;;;;;;;0.50;0.50;;;5.20;99.90;;;;;;5071941;28;20032;-67
2022/01/23 09:42:11;;;;;;;1.75;0.55;;;5.20;99.90;;;;;;5071758;28;20081;-68
2022/01/23 09:45:00;;;;;;;0.57;0.50;;;5.20;99.90;;;;;;5071671;28;20050;-68
2022/01/23 09:47:27;;;;;;;0.40;0.40;;;5.20;99.90;;;;;;5070866;28;20036;-68
2022/01/23 09:49:54;;;;;;;0.40;0.40;;;5.10;99.90;;;;;;5071449;28;20029;-68
2022/01/23 09:52:21;;;;;;;0.50;0.50;;;5.10;99.90;;;;;;5071474;28;20021;-68
2022/01/23 09:54:59;;;;;;;1.50;0.50;;;5.10;99.90;;;;;;5071641;28;20384;-68
2022/01/23 09:57:30;;;;;;;0.40;0.40;;;5.10;99.90;;;;;;5071716;28;20103;-68
2022/01/23 10:00:00;;;;;;;0.60;0.60;;;5.10;99.90;;;;;;5071409;28;20024;-68
2022/01/23 10:02:26;;;;;;;0.98;0.57;;;5.10;99.90;;;;;;5071359;28;20035;-68
2022/01/23 10:04:53;;;;;;;1.00;0.50;;;5.10;99.90;;;;;;5071341;28;20021;-68
2022/01/23 10:07:21;;;;;;;0.50;0.50;;;5.20;99.90;;;;;;5074535;28;20361;-68
2022/01/23 10:09:54;;;;;;;0.50;0.50;;;5.10;99.90;;;;;;5075116;28;20063;-70
2022/01/23 10:12:23;;;;;;;1.13;0.60;;;5.20;99.90;;;;;;5074970;28;20491;-68
2022/01/23 10:14:49;;;;;;;0.45;0.45;;;5.70;99.90;;;;;;5074905;28;20051;-68
2022/01/23 10:17:15;;;;;;;0.50;0.50;;;5.80;99.90;;;;;;5075151;28;20044;-68
2022/01/23 10:19:41;;;;;;;0.40;0.40;;;5.70;99.90;;;;;;5074863;28;20060;-68
2022/01/23 10:22:07;;;;;;;1.30;0.82;;;5.50;99.90;;;;;;5074940;28;20028;-68
2022/01/23 10:24:33;;;;;;;1.60;1.50;;;5.50;99.90;;;;;;5074692;28;20064;-68
2022/01/23 10:27:00;;;;;;;1.15;0.80;;;5.50;99.90;;;;;;5074905;28;20033;-68
2022/01/23 10:29:36;;;;;;;0.85;0.65;;;5.40;99.90;;;;;;5074528;28;20111;-68
2022/01/23 10:32:21;;;;;;;1.15;1.05;;;5.40;99.90;;;;;;5075038;28;20103;-68
2022/01/23 10:34:57;;;;;;;1.55;1.17;;;5.40;99.90;;;;;;5074548;28;20043;-68
2022/01/23 10:37:32;;;;;;;1.40;1.10;;;5.40;99.90;;;;;;5074533;28;20062;-68
2022/01/23 10:39:59;;;;;;;1.50;1.40;;;5.40;99.90;;;;;;5074858;28;20032;-68
2022/01/23 10:48:12;;;;;;;0.68;0.68;;;5.40;99.90;;;;;;5074720;28;20553;-68
2022/01/23 10:50:38;;;;;;;2.65;1.10;;;5.50;99.90;;;;;;5074584;28;20029;-68
2022/01/23 10:53:04;;;;;;;2.70;1.60;;;5.50;99.90;;;;;;5074613;28;20021;-68
2022/01/23 10:55:35;;;;;;;2.15;1.63;;;5.50;99.90;;;;;;5074187;28;20036;-68
2022/01/23 10:58:06;;;;;;;1.48;1.25;;;5.60;99.90;;;;;;5074682;28;20056;-67
2022/01/23 11:00:39;;;;;;;0.98;0.98;;;5.60;99.90;;;;;;5074526;28;20424;-68
2022/01/23 11:03:22;;;;;;;11.50;6.25;;;5.60;99.90;;;;;;5074299;28;20166;-68
2022/01/23 11:05:49;;;;;;;5.65;3.00;;;5.70;99.90;;;;;;5074206;28;20029;-68
2022/01/23 11:08:23;;;;;;;2.25;1.17;;;5.70;99.90;;;;;;5074369;28;20032;-68
2022/01/23 11:10:57;;;;;;;0.60;0.60;;;5.70;99.90;;;;;;5073606;28;20064;-68
2022/01/23 11:19:19;;;;;;;1.60;0.40;;;5.80;99.90;;;;;;5073351;28;20031;-71
2022/01/23 11:21:45;;;;;;;0.40;0.40;;;5.80;99.90;;;;;;5072113;28;20028;-71
2022/01/23 11:24:12;;;;;;;1.67;0.50;;;5.80;99.90;;;;;;5069285;28;20021;-72
2022/01/23 11:26:39;;;;;;;0.40;0.40;;;5.80;99.90;;;;;;5072976;28;20027;-71
2022/01/23 11:29:17;;;;;;;0.40;0.40;;;5.80;99.90;;;;;;5070393;28;20116;-71
2022/01/23 11:31:44;;;;;;;0.40;0.40;;;5.80;99.90;;;;;;5072136;28;20028;-72
2022/01/23 11:34:12;;;;;;;0.50;0.50;;;5.80;99.90;;;;;;5072314;28;20016;-72
2022/01/23 11:36:39;;;;;;;0.40;0.40;;;5.80;99.90;;;;;;5072371;28;20043;-71
2022/01/23 11:39:14;;;;;;;1.10;0.50;;;5.80;99.90;;;;;;5070233;28;20051;-72
2022/01/23 11:51:18;;;;;;;0.40;0.40;;;5.90;99.90;;;;;;5070952;28;20521;-72
2022/01/23 11:53:52;;;;;;;0.47;0.47;;;5.80;99.90;;;;;;5066955;28;20023;-73
2022/01/23 11:56:27;;;;;;;0.93;0.60;;;5.90;99.90;;;;;;5052906;28;20041;-72
2022/01/23 11:58:53;;;;;;;2.17;0.40;;;5.90;99.90;;;;;;5064408;28;20017;-72
2022/01/23 12:01:24;;;;;;;0.50;0.50;;;5.90;99.90;;;;;;5072345;28;20100;-72
2022/01/23 12:04:18;;;;;;;0.50;0.50;;;5.90;99.90;;;;;;5072885;28;20035;-72
2022/01/23 12:07:11;;;;;;;0.40;0.40;;;5.90;99.90;;;;;;5072838;28;20040;-72
2022/01/23 12:09:39;;;;;;;0.70;0.70;;;5.90;99.90;;;;;;5072716;28;20025;-72
2022/01/23 12:12:19;;;;;;;0.50;0.50;;;5.90;99.90;;;;;;5072862;28;20024;-72
2022/01/23 12:17:19;;;;;;;1.10;0.50;;;5.90;99.90;;;;;;5072917;28;20931;-72
2022/01/23 12:19:51;;;;;;;0.50;0.50;;;5.90;99.90;;;;;;5072605;28;20480;-72
2022/01/23 12:22:30;;;;;;;1.10;0.50;;;5.90;99.90;;;;;;5072757;28;20032;-72
2022/01/23 12:25:04;;;;;;;1.33;0.52;;;5.90;99.90;;;;;;5072973;28;20021;-72
2022/01/23 12:27:31;;;;;;;0.40;0.40;;;5.90;99.90;;;;;;5072450;28;20028;-72
2022/01/23 12:30:33;;;;;;;0.50;0.50;;;5.90;99.90;;;;;;5072411;28;20024;-72
2022/01/23 12:33:28;;;;;;;0.50;0.50;;;5.90;99.90;;;;;;5072738;28;20059;-73
2022/01/23 12:35:58;;;;;;;0.50;0.50;;;5.90;99.90;;;;;;5071514;28;20065;-71
2022/01/23 12:38:33;;;;;;;0.60;0.57;;;5.90;99.90;;;;;;5071504;28;20039;-72
2022/01/23 12:41:14;;;;;;;0.57;0.50;;;5.90;99.90;;;;;;5071243;28;20420;-72
2022/01/23 12:43:40;;;;;;;0.52;0.52;;;5.90;99.90;;;;;;5071519;28;20017;-74
2022/01/23 12:46:08;;;;;;;0.80;0.60;;;5.90;99.90;;;;;;5071707;28;20063;-68
2022/01/23 12:48:40;;;;;;;0.50;0.50;;;5.90;99.90;;;;;;5072423;28;20033;-68
2022/01/23 12:51:08;;;;;;;0.47;0.47;;;6.00;99.90;;;;;;5072387;28;20032;-68
2022/01/23 12:53:45;;;;;;;0.88;0.50;;;6.00;99.90;;;;;;5072126;28;20020;-69
2022/01/23 12:56:19;;;;;;;0.47;0.40;;;6.00;99.90;;;;;;5072052;28;20028;-70
2022/01/23 12:58:53;;;;;;;1.10;0.50;;;6.00;99.90;;;;;;5072252;28;20035;-68
2022/01/23 13:01:22;;;;;;;0.43;0.43;;;6.00;99.90;;;;;;5071615;28;20033;-67
2022/01/23 13:03:51;;;;;;;0.50;0.50;;;6.00;99.90;;;;;;5068684;28;20569;-66
2022/01/23 13:06:17;;;;;;;1.25;0.47;;;6.00;99.90;;;;;;5071931;28;20024;-67
2022/01/23 13:08:47;;;;;;;2.05;0.73;;;6.10;99.90;;;;;;5071877;28;20028;-67
2022/01/23 13:14:00;;;;;;;1.02;0.50;;;6.10;99.90;;;;;;5072099;28;20031;-67
2022/01/23 13:30:19;;;;;;;0.47;0.40;;;6.80;99.90;;;;;;5017461;28;20391;-66
2022/01/23 13:32:50;;;;;;;1.50;0.70;;;6.50;99.90;;;;;;5051751;28;20021;-71
2022/01/23 13:35:17;;;;;;;1.52;0.73;;;6.40;99.90;;;;;;5060993;28;20086;-70
2022/01/23 13:37:46;;;;;;;3.65;0.55;;;6.20;99.90;;;;;;5071398;28;20045;-70
2022/01/23 13:40:24;;;;;;;0.80;0.60;;;6.20;99.90;;;;;;5072049;28;20028;-71
2022/01/23 14:00:14;;;;;;;1.88;0.85;;;6.00;99.90;;;;;;5075020;28;20036;-70
2022/01/23 14:02:20;;;;;;;3.08;0.88;;;6.00;99.90;;;;;;5065292;28;20035;-70
2022/01/23 14:04:48;;;;;;;;;;;6.00;99.90;;;;;;5074691;28;20098;-70
2022/01/23 14:07:26;;;;;;;2.58;0.80;;;6.00;99.90;;;;;;5074670;28;20427;-71
2022/01/23 14:09:54;;;;;;;3.65;0.90;;;5.90;99.90;;;;;;5075063;28;20037;-71
2022/01/23 14:12:21;;;;;;;3.42;1.13;;;5.90;99.90;;;;;;5074362;28;20051;-71
2022/01/23 14:15:03;;;;;;;2.03;0.90;;;5.90;99.90;;;;;;5074499;28;20043;-71
2022/01/23 14:17:32;;;;;;;6.72;0.90;;;5.90;99.90;;;;;;5075081;28;20029;-71
2022/01/23 14:20:13;;;;;;;6.00;1.50;;;5.90;99.90;;;;;;5073948;28;20035;-71
2022/01/23 14:22:41;;;;;;;2.90;1.08;;;5.90;99.90;;;;;;5072725;28;20028;-70
2022/01/23 14:25:12;;;;;;;6.07;1.20;;;5.90;99.90;;;;;;5074521;28;20094;-70
2022/01/23 14:27:38;;;;;;;3.25;1.02;;;5.90;99.90;;;;;;5074685;28;20024;-70
2022/01/23 14:30:08;;;;;;;4.88;1.10;;;5.90;99.90;;;;;;5074868;28;20048;-70
2022/01/23 14:32:47;;;;;;;3.78;1.38;;;5.90;99.90;;;;;;5073708;28;20035;-70
2022/01/23 14:35:15;;;;;;;2.78;1.33;;;6.00;99.90;;;;;;5074142;28;20066;-71
2022/01/23 14:37:43;;;;;;;6.88;1.60;;;6.20;99.90;;;;;;5074343;28;20435;-79
2022/01/23 14:40:14;;;;;;;4.40;1.40;;;6.30;99.90;;;;;;5074679;28;20016;-80
2022/01/23 14:42:56;;;;;;;6.40;1.20;;;6.20;99.90;;;;;;5074450;28;20020;-75
2022/01/23 14:45:22;;;;;;;4.53;1.10;;;6.20;99.90;;;;;;5074781;28;20036;-78
2022/01/23 14:47:48;;;;;;;4.70;1.30;;;6.10;99.90;;;;;;5073265;28;20052;-79
2022/01/23 14:50:17;;;;;;;6.32;1.13;;;6.10;99.90;;;;;;5074422;28;20048;-77
2022/01/23 14:52:44;;;;;;;7.00;1.40;;;6.10;99.90;;;;;;5074177;28;20381;-77
2022/01/23 14:55:10;;;;;;;5.30;1.48;;;6.10;99.90;;;;;;5072866;28;20097;-78
2022/01/23 14:57:35;;;;;;;4.90;1.33;;;6.10;99.90;;;;;;5074339;28;20103;-79
2022/01/23 15:00:06;;;;;;;7.82;1.52;;;6.10;99.90;;;;;;5074329;28;20048;-80
2022/01/23 15:02:32;;;;;;;24.40;2.53;;;6.10;99.90;;;;;;5074663;28;20084;-73
2022/01/23 15:05:02;;;;;;;12.95;1.60;;;7.20;99.90;;;;;;5074191;28;20537;-73
2022/01/23 15:07:33;;;;;;;17.92;1.60;;;8.80;99.90;;;;;;5074579;28;20028;-70
2022/01/23 15:09:59;;;;;;;8.07;1.55;;;10.20;99.90;;;;;;5074178;28;20021;-70
2022/01/23 15:12:25;;;;;;;4.97;1.30;;;10.20;99.90;;;;;;5074104;28;20040;-72
2022/01/23 15:14:51;;;;;;;3.90;1.25;;;9.50;99.90;;;;;;5073791;28;20036;-71
2022/01/23 15:17:18;;;;;;;6.20;1.40;;;8.90;99.90;;;;;;5074278;28;20160;-75
2022/01/23 15:19:44;;;;;;;8.23;1.48;;;8.40;99.90;;;;;;5073865;28;20017;-75
2022/01/23 15:22:09;;;;;;;7.80;1.33;;;8.00;99.90;;;;;;5073883;28;20028;-73
2022/01/23 15:24:35;;;;;;;3.80;1.40;;;7.70;99.90;;;;;;5073814;28;20028;-72
2022/01/23 15:27:01;;;;;;;7.60;1.92;;;7.40;99.90;;;;;;5069622;28;20535;-72
2022/01/23 15:29:27;;;;;;;7.22;1.30;;;7.20;99.90;;;;;;5053741;28;20132;-72
2022/01/23 15:31:52;;;;;;;6.28;1.25;;;7.10;99.90;;;;;;5053583;28;20025;-72
2022/01/23 15:34:18;;;;;;;6.28;1.95;;;6.90;99.90;;;;;;5060911;28;20028;-76
2022/01/23 15:36:44;;;;;;;7.65;1.75;;;6.90;99.90;;;;;;5070817;28;20038;-72
2022/01/23 15:39:10;;;;;;;6.97;1.90;;;6.80;99.90;;;;;;5069157;28;20044;-72
2022/01/23 15:41:36;;;;;;;6.40;1.40;;;6.80;99.90;;;;;;5072236;28;20028;-73
2022/01/23 15:44:02;;;;;;;6.43;1.20;;;6.70;99.90;;;;;;5070203;28;20075;-73
2022/01/23 15:46:28;;;;;;;6.30;1.10;;;6.60;99.90;;;;;;5072050;28;20020;-73
2022/01/23 15:48:54;;;;;;;4.07;1.33;;;6.60;99.90;;;;;;5072475;28;20029;-73
2022/01/23 15:51:19;;;;;;;6.80;1.27;;;6.60;99.90;;;;;;5072599;28;20035;-73
2022/01/23 15:53:45;;;;;;;4.05;0.95;;;6.60;99.90;;;;;;5065012;28;20024;-73
2022/01/23 15:56:11;;;;;;;2.70;0.95;;;6.60;99.90;;;;;;5065715;28;20036;-72
2022/01/23 15:58:37;;;;;;;3.92;1.35;;;6.60;99.90;;;;;;5066498;28;20025;-73
2022/01/23 16:01:03;;;;;;;6.35;1.30;;;6.60;99.90;;;;;;5071943;28;20064;-73
2022/01/23 16:03:29;;;;;;;4.85;1.35;;;6.50;99.90;;;;;;5072721;28;20408;-73
2022/01/23 16:05:56;;;;;;;5.90;1.10;;;6.50;99.90;;;;;;5072740;28;20020;-74
2022/01/23 16:08:22;;;;;;;6.50;1.20;;;6.50;99.90;;;;;;5072942;28;20112;-73
2022/01/23 16:10:48;;;;;;;4.32;1.25;;;6.50;99.90;;;;;;5072522;28;20024;-74
2022/01/23 16:13:13;;;;;;;5.40;1.15;;;6.50;99.90;;;;;;5071211;28;20024;-73
2022/01/23 16:15:40;;;;;;;6.68;1.20;;;6.50;99.90;;;;;;5072739;28;20036;-72
2022/01/23 16:18:05;;;;;;;4.38;0.85;;;6.50;99.90;;;;;;5072943;28;20028;-72
2022/01/23 16:20:31;;;;;;;3.97;1.27;;;6.40;99.90;;;;;;5071699;28;20097;-72
2022/01/23 16:22:57;;;;;;;3.47;1.17;;;6.40;99.90;;;;;;5072719;28;20171;-75
2022/01/23 16:25:23;;;;;;;18.15;7.18;;;6.40;99.90;;;;;;5072553;28;20016;-82
2022/01/23 16:27:49;;;;;;;302.27;144.43;;;6.40;99.90;;;;;;5071549;28;20079;-80
2022/01/23 16:30:16;;;;;;;88.13;45.47;;;6.40;99.90;;;;;;5071858;28;20096;-79
2022/01/23 16:32:45;;;;;;;43.67;20.10;;;6.40;99.90;;;;;;5071807;28;20032;-79
2022/01/23 16:35:12;;;;;;;13.63;9.15;;;6.40;99.90;;;;;;5071791;28;20085;-80
2022/01/23 16:37:38;;;;;;;47.08;28.70;;;6.30;99.90;;;;;;5072057;28;20055;-77
2022/01/23 16:40:04;;;;;;;37.67;21.10;;;6.30;99.90;;;;;;5072353;28;20024;-74
2022/01/23 16:42:30;;;;;;;16.10;9.70;;;6.30;99.90;;;;;;5071413;28;20020;-74
2022/01/23 16:44:55;;;;;;;8.38;4.25;;;6.30;99.90;;;;;;5072229;28;20031;-73
2022/01/23 16:47:21;;;;;;;4.65;2.30;;;6.30;99.90;;;;;;5072330;28;20425;-73
2022/01/23 16:49:47;;;;;;;3.53;2.13;;;6.30;99.90;;;;;;5072193;28;20054;-75
2022/01/23 16:52:12;;;;;;;4.38;2.03;;;6.30;99.90;;;;;;5072299;28;20024;-74
2022/01/23 16:54:39;;;;;;;5.22;2.70;;;6.20;99.90;;;;;;5072152;28;20024;-74